createdAt,value
2022-12-18T00:01:35.358Z,22.27
2022-12-18T00:04:06.399Z,22.23
2022-12-18T00:06:36.426Z,21.80
2022-12-18T00:09:06.115Z,20.25
2022-12-18T00:11:33.063Z,20.70
2022-12-18T00:14:03.042Z,22.40
2022-12-18T00:16:38.209Z,21.55
2022-12-18T00:19:16.097Z,24.80
2022-12-18T00:21:43.899Z,23.75
2022-12-18T00:24:11.930Z,21.27
2022-12-18T00:26:43.119Z,21.67
2022-12-18T00:29:17.236Z,15.85
2022-12-18T00:31:48.479Z,22.48
2022-12-18T00:34:17.767Z,23.52
2022-12-18T00:36:48.519Z,24.77
2022-12-18T00:39:15.279Z,19.48
2022-12-18T00:42:03.480Z,25.98
2022-12-18T00:44:32.603Z,21.77
2022-12-18T00:46:59.261Z,23.60
2022-12-18T00:49:26.015Z,20.52
2022-12-18T00:52:02.054Z,24.92
2022-12-18T00:54:31.205Z,25.38
2022-12-18T00:57:07.157Z,21.73
2022-12-18T00:59:38.754Z,28.08
2022-12-18T01:02:05.420Z,22.88
2022-12-18T01:04:37.364Z,22.85
2022-12-18T01:07:08.092Z,26.88
2022-12-18T01:09:39.765Z,26.40
2022-12-18T01:12:08.222Z,24.42
2022-12-18T01:14:34.934Z,21.90
2022-12-18T01:17:03.655Z,23.60
2022-12-18T01:19:34.619Z,23.60
2022-12-18T01:22:01.234Z,22.15
2022-12-18T01:24:27.904Z,20.88
2022-12-18T01:26:56.760Z,23.45
2022-12-18T01:29:25.865Z,24.05
2022-12-18T01:31:55.389Z,22.45
2022-12-18T01:34:23.571Z,25.10
2022-12-18T01:36:50.214Z,22.58
2022-12-18T01:39:18.815Z,24.35
2022-12-18T01:42:04.975Z,25.95
2022-12-18T01:45:10.567Z,22.42
2022-12-18T01:47:51.647Z,21.95
2022-12-18T01:50:28.067Z,20.27
2022-12-18T01:53:12.032Z,21.70
2022-12-18T01:55:48.444Z,22.40
2022-12-18T01:58:18.993Z,21.88
2022-12-18T02:00:46.065Z,18.55
2022-12-18T02:03:15.728Z,18.65
2022-12-18T02:05:54.228Z,20.23
2022-12-18T02:08:44.746Z,23.13
2022-12-18T02:11:33.616Z,22.67
2022-12-18T02:14:19.069Z,21.02
2022-12-18T02:17:08.495Z,20.83
2022-12-18T02:19:58.136Z,20.63
2022-12-18T02:22:27.874Z,22.25
2022-12-18T02:25:30.115Z,22.52
2022-12-18T02:30:32.807Z,18.42
2022-12-18T02:33:02.744Z,17.92
2022-12-18T02:35:33.992Z,16.98
2022-12-18T02:38:03.912Z,20.48
2022-12-18T02:40:33.675Z,19.92
2022-12-18T02:43:09.885Z,20.27
2022-12-18T02:45:47.505Z,18.08
2022-12-18T02:48:16.888Z,19.90
2022-12-18T02:51:09.188Z,22.33
2022-12-18T02:53:46.491Z,16.50
2022-12-18T02:56:27.462Z,18.73
2022-12-18T02:59:16.882Z,16.03
2022-12-18T03:02:12.636Z,17.35
2022-12-18T03:04:45.075Z,18.63
2022-12-18T03:07:19.480Z,19.35
2022-12-18T03:09:51.371Z,18.35
2022-12-18T03:12:38.672Z,20.15
2022-12-18T03:15:20.276Z,21.10
2022-12-18T03:18:02.382Z,18.75
2022-12-18T03:20:35.642Z,20.73
2022-12-18T03:23:13.062Z,15.80
2022-12-18T03:25:47.327Z,18.17
2022-12-18T03:28:19.911Z,19.02
2022-12-18T03:30:57.946Z,20.42
2022-12-18T03:33:55.452Z,19.33
2022-12-18T03:36:28.598Z,16.08
2022-12-18T03:38:55.447Z,20.30
2022-12-18T03:41:34.502Z,17.88
2022-12-18T03:44:34.752Z,20.38
2022-12-18T03:47:32.439Z,19.20
2022-12-18T03:50:18.903Z,20.98
2022-12-18T03:52:53.270Z,20.23
2022-12-18T03:55:23.483Z,17.55
2022-12-18T03:57:57.747Z,18.27
2022-12-18T04:00:29.668Z,18.88
2022-12-18T04:03:06.848Z,19.63
2022-12-18T04:05:45.040Z,19.67
2022-12-18T04:08:13.655Z,18.40
2022-12-18T04:10:46.148Z,19.52
2022-12-18T04:13:30.573Z,14.40
2022-12-18T04:15:59.479Z,18.40
2022-12-18T04:18:27.235Z,21.60
2022-12-18T04:20:54.744Z,19.10
2022-12-18T04:23:23.266Z,18.85
2022-12-18T04:25:51.041Z,20.65
2022-12-18T04:28:33.324Z,35.63
2022-12-18T04:31:00.169Z,22.77
2022-12-18T04:33:27.956Z,19.50
2022-12-18T04:35:54.634Z,22.08
2022-12-18T04:38:21.299Z,22.42
2022-12-18T04:40:53.911Z,16.10
2022-12-18T04:43:28.273Z,19.63
2022-12-18T04:46:01.671Z,22.40
2022-12-18T04:48:28.279Z,23.17
2022-12-18T04:50:57.290Z,25.52
2022-12-18T04:53:26.731Z,17.40
2022-12-18T04:56:04.943Z,19.55
2022-12-18T04:58:40.362Z,20.55
2022-12-18T05:01:10.434Z,18.33
2022-12-18T05:03:40.472Z,19.92
2022-12-18T05:06:11.627Z,23.05
2022-12-18T05:08:38.255Z,16.25
2022-12-18T05:11:06.291Z,23.52
2022-12-18T05:13:33.907Z,20.05
2022-12-18T05:16:01.821Z,20.45
2022-12-18T05:18:31.705Z,26.30
2022-12-18T05:21:01.819Z,24.15
2022-12-18T05:23:30.865Z,22.75
2022-12-18T05:26:02.814Z,22.92
2022-12-18T05:28:31.539Z,21.75
2022-12-18T05:31:01.391Z,25.48
2022-12-18T05:33:31.755Z,22.60
2022-12-18T05:36:00.928Z,21.95
2022-12-18T05:38:31.222Z,20.77
2022-12-18T05:41:00.387Z,19.58
2022-12-18T05:43:28.483Z,21.38
2022-12-18T05:45:59.718Z,23.73
2022-12-18T05:48:26.378Z,21.48
2022-12-18T05:50:53.079Z,22.80
2022-12-18T05:53:22.689Z,26.58
2022-12-18T05:55:49.571Z,20.55
2022-12-18T05:58:17.120Z,23.30
2022-12-18T06:00:46.497Z,24.48
2022-12-18T06:03:14.286Z,22.63
2022-12-18T06:05:46.566Z,20.27
2022-12-18T06:08:16.676Z,23.05
2022-12-18T06:10:50.179Z,24.60
2022-12-18T06:13:19.788Z,23.85
2022-12-18T06:15:46.706Z,23.77
2022-12-18T06:18:13.522Z,21.65
2022-12-18T06:20:42.691Z,24.10
2022-12-18T06:23:10.317Z,26.05
2022-12-18T06:25:39.330Z,21.42
2022-12-18T06:28:08.491Z,25.45
2022-12-18T06:30:35.212Z,29.00
2022-12-18T06:33:01.869Z,25.50
2022-12-18T06:35:33.664Z,25.58
2022-12-18T06:38:02.467Z,20.52
2022-12-18T06:40:29.319Z,23.08
2022-12-18T06:42:59.960Z,23.85
2022-12-18T06:45:26.682Z,22.60
2022-12-18T06:47:54.422Z,23.23
2022-12-18T06:50:23.167Z,23.70
2022-12-18T06:52:52.399Z,20.15
2022-12-18T06:55:21.450Z,21.40
2022-12-18T06:57:50.478Z,22.95
2022-12-18T07:00:21.959Z,24.40
2022-12-18T07:02:48.645Z,23.70
2022-12-18T07:05:15.415Z,28.00
2022-12-18T07:07:42.060Z,21.67
2022-12-18T07:10:12.930Z,21.48
2022-12-18T07:12:39.512Z,23.48
2022-12-18T07:15:08.881Z,29.00
2022-12-18T07:17:38.063Z,22.50
2022-12-18T07:20:07.604Z,20.20
2022-12-18T07:22:34.200Z,25.30
2022-12-18T07:25:00.855Z,23.20
2022-12-18T07:27:27.474Z,21.13
2022-12-18T07:29:54.524Z,21.83
2022-12-18T07:32:23.267Z,22.23
2022-12-18T07:34:51.877Z,22.65
2022-12-18T07:37:22.843Z,22.85
2022-12-18T07:39:53.407Z,20.50
2022-12-18T07:42:34.224Z,26.88
2022-12-18T07:45:01.996Z,31.98
2022-12-18T07:47:29.593Z,29.27
2022-12-18T07:50:00.599Z,29.90
2022-12-18T07:52:30.235Z,26.25
2022-12-18T07:54:59.581Z,25.85
2022-12-18T08:00:13.517Z,24.35
2022-12-18T08:02:40.277Z,27.63
2022-12-18T08:05:07.170Z,25.35
2022-12-18T08:07:33.960Z,23.77
2022-12-18T08:10:00.542Z,28.45
2022-12-18T08:12:27.171Z,26.10
2022-12-18T08:14:53.819Z,34.67
2022-12-18T08:17:21.097Z,27.95
2022-12-18T08:19:47.700Z,24.42
2022-12-18T08:22:14.344Z,25.88
2022-12-18T08:24:40.952Z,23.30
2022-12-18T08:29:54.209Z,25.35
2022-12-18T08:32:20.931Z,29.02
2022-12-18T08:34:47.641Z,24.02
2022-12-18T08:37:14.241Z,26.58
2022-12-18T08:39:40.904Z,29.63
2022-12-18T08:42:26.202Z,55.22
2022-12-18T08:44:52.840Z,46.83
2022-12-18T08:47:20.876Z,38.03
2022-12-18T08:49:47.489Z,30.45
2022-12-18T08:52:14.112Z,30.17
2022-12-18T08:54:40.792Z,57.17
2022-12-18T08:57:07.694Z,54.70
2022-12-18T08:59:34.320Z,35.30
2022-12-18T09:02:01.279Z,28.77
2022-12-18T09:04:28.165Z,25.58
2022-12-18T09:06:56.129Z,27.60
2022-12-18T09:09:22.959Z,26.33
2022-12-18T09:11:49.568Z,31.30
2022-12-18T09:14:16.207Z,26.67
2022-12-18T09:16:43.358Z,27.60
2022-12-18T09:19:10.876Z,28.05
2022-12-18T09:21:41.204Z,29.58
2022-12-18T09:24:14.427Z,43.05
2022-12-18T09:26:41.107Z,105.45
2022-12-18T09:29:10.171Z,86.43
2022-12-18T09:31:37.774Z,50.35
2022-12-18T09:34:04.397Z,36.88
2022-12-18T09:36:30.980Z,30.33
2022-12-18T09:38:57.643Z,27.58
2022-12-18T09:41:45.216Z,26.40
2022-12-18T09:44:19.957Z,24.85
2022-12-18T09:47:13.564Z,28.10
2022-12-18T09:49:44.334Z,23.67
2022-12-18T09:52:20.573Z,25.45
2022-12-18T09:55:06.716Z,26.55
2022-12-18T09:57:36.502Z,22.92
2022-12-18T10:00:17.115Z,22.15
2022-12-18T10:02:43.890Z,27.08
2022-12-18T10:05:17.856Z,27.83
2022-12-18T10:08:02.069Z,27.95
2022-12-18T10:10:34.859Z,27.38
2022-12-18T10:13:57.686Z,30.65
2022-12-18T10:19:40.040Z,45.78
2022-12-18T10:22:36.477Z,33.95
2022-12-18T10:25:06.883Z,27.17
2022-12-18T10:27:33.636Z,32.03
2022-12-18T10:30:02.019Z,30.17
2022-12-18T10:32:31.050Z,30.77
2022-12-18T10:35:00.680Z,27.92
2022-12-18T10:37:30.734Z,29.90
2022-12-18T10:40:16.655Z,29.60
2022-12-18T10:42:45.062Z,37.40
2022-12-18T10:45:13.554Z,35.00
2022-12-18T10:47:49.301Z,29.20
2022-12-18T10:51:01.368Z,24.42
2022-12-18T10:53:25.508Z,23.98
2022-12-18T10:55:54.820Z,24.92
2022-12-18T10:58:34.789Z,26.02
2022-12-18T11:01:14.560Z,25.90
2022-12-18T11:03:42.600Z,24.15
2022-12-18T11:06:12.440Z,26.30
2022-12-18T11:08:40.404Z,34.80
2022-12-18T11:11:24.700Z,39.13
2022-12-18T11:14:00.532Z,30.38
2022-12-18T11:16:28.728Z,30.88
2022-12-18T11:19:22.287Z,34.30
2022-12-18T11:21:49.769Z,30.90
2022-12-18T11:24:30.165Z,27.60
2022-12-18T11:27:01.266Z,32.35
2022-12-18T11:29:46.424Z,26.10
2022-12-18T11:32:16.425Z,30.70
2022-12-18T11:34:48.180Z,27.58
2022-12-18T11:37:20.051Z,23.02
2022-12-18T11:39:55.355Z,24.00
2022-12-18T11:42:45.463Z,31.38
2022-12-18T11:45:12.235Z,24.88
2022-12-18T11:47:59.975Z,34.03
2022-12-18T11:50:47.510Z,31.85
2022-12-18T11:53:14.354Z,28.75
2022-12-18T11:55:59.867Z,23.75
2022-12-18T11:58:59.394Z,33.05
2022-12-18T12:01:56.760Z,26.80
2022-12-18T12:04:47.890Z,30.05
2022-12-18T12:07:33.688Z,29.48
2022-12-18T12:10:19.524Z,40.30
2022-12-18T12:13:01.675Z,27.73
2022-12-18T12:15:36.680Z,28.58
2022-12-18T12:18:22.068Z,25.35
2022-12-18T12:20:54.625Z,26.77
2022-12-18T12:23:29.968Z,28.98
2022-12-18T12:26:01.095Z,24.63
2022-12-18T12:28:51.756Z,19.63
2022-12-18T12:31:36.687Z,30.40
2022-12-18T12:34:25.330Z,27.65
2022-12-18T12:37:16.549Z,25.67
2022-12-18T12:39:46.023Z,25.55
2022-12-18T12:42:43.716Z,23.13
2022-12-18T12:45:24.333Z,26.38
2022-12-18T12:47:52.615Z,22.67
2022-12-18T12:50:22.204Z,30.05
2022-12-18T12:52:56.714Z,27.80
2022-12-18T12:55:27.683Z,24.08
2022-12-18T12:58:09.762Z,24.85
2022-12-18T13:00:51.131Z,23.20
2022-12-18T13:03:51.764Z,33.83
2022-12-18T13:06:51.444Z,32.80
2022-12-18T13:09:18.590Z,28.17
2022-12-18T13:12:06.715Z,28.02
2022-12-18T13:14:39.220Z,30.15
2022-12-18T13:17:21.161Z,30.08
2022-12-18T13:20:05.228Z,29.73
2022-12-18T13:23:01.252Z,30.65
2022-12-18T13:25:32.935Z,23.92
2022-12-18T13:28:16.917Z,25.50
2022-12-18T13:30:49.327Z,28.77
2022-12-18T13:33:23.110Z,29.45
2022-12-18T13:35:54.352Z,27.05
2022-12-18T13:38:33.947Z,25.67
2022-12-18T13:41:21.810Z,30.58
2022-12-18T13:44:12.152Z,26.65
2022-12-18T13:46:44.251Z,25.63
2022-12-18T13:49:13.619Z,27.97
2022-12-18T13:51:47.512Z,28.83
2022-12-18T13:54:21.432Z,33.17
2022-12-18T13:56:49.923Z,43.22
2022-12-18T13:59:27.754Z,31.42
2022-12-18T14:01:59.696Z,28.80
2022-12-18T14:04:31.408Z,32.20
2022-12-18T14:07:08.197Z,26.35
2022-12-18T14:09:44.151Z,33.65
2022-12-18T14:12:43.827Z,34.92
2022-12-18T14:15:45.274Z,25.52
2022-12-18T14:18:18.271Z,29.85
2022-12-18T14:20:50.728Z,28.65
2022-12-18T14:23:39.887Z,26.98
2022-12-18T14:26:29.777Z,31.40
2022-12-18T14:29:29.576Z,29.42
2022-12-18T14:32:19.200Z,27.27
2022-12-18T14:34:51.229Z,32.63
2022-12-18T14:37:22.558Z,27.20
2022-12-18T14:40:00.124Z,26.65
2022-12-18T14:42:30.113Z,29.95
2022-12-18T14:45:41.525Z,30.67
2022-12-18T14:48:23.059Z,27.75
2022-12-18T14:51:03.265Z,28.30
2022-12-18T14:53:36.951Z,28.38
2022-12-18T14:56:11.045Z,26.63
2022-12-18T14:58:37.812Z,29.50
2022-12-18T15:01:04.677Z,35.80
2022-12-18T15:03:32.418Z,27.65
2022-12-18T15:06:17.089Z,28.17
2022-12-18T15:08:44.013Z,33.40
2022-12-18T15:11:34.106Z,37.92
2022-12-18T15:14:01.624Z,44.67
2022-12-18T15:16:28.447Z,50.20
2022-12-18T15:18:55.265Z,43.17
2022-12-18T15:21:22.197Z,43.58
2022-12-18T15:23:52.175Z,39.60
2022-12-18T15:26:21.474Z,41.72
2022-12-18T15:28:53.705Z,41.47
2022-12-18T15:31:30.198Z,46.55
2022-12-18T15:33:56.833Z,50.90
2022-12-18T15:36:26.456Z,39.08
2022-12-18T15:39:02.201Z,51.40
2022-12-18T15:41:34.846Z,112.90
2022-12-18T15:44:03.600Z,54.45
2022-12-18T15:46:31.594Z,39.72
2022-12-18T15:49:02.165Z,37.92
2022-12-18T15:51:35.558Z,35.72
2022-12-18T15:54:04.923Z,30.55
2022-12-18T15:57:10.750Z,37.00
2022-12-18T15:59:37.398Z,31.25
2022-12-18T16:02:17.941Z,33.67
2022-12-18T16:04:44.856Z,27.75
2022-12-18T16:07:16.224Z,34.00
2022-12-18T16:09:51.391Z,31.67
2022-12-18T16:12:22.321Z,29.55
2022-12-18T16:14:49.525Z,27.70
2022-12-18T16:17:16.746Z,30.65
2022-12-18T16:19:43.608Z,28.80
2022-12-18T16:22:21.912Z,31.27
2022-12-18T16:24:49.077Z,32.92
2022-12-18T16:27:15.782Z,33.35
2022-12-18T16:29:42.419Z,31.70
2022-12-18T16:32:21.282Z,31.50
2022-12-18T16:34:48.283Z,31.15
2022-12-18T16:37:16.608Z,30.40
2022-12-18T16:39:44.316Z,35.42
2022-12-18T16:42:15.217Z,35.70
2022-12-18T16:44:42.122Z,36.33
2022-12-18T16:47:08.851Z,34.58
2022-12-18T16:49:36.914Z,35.17
2022-12-18T16:52:08.088Z,34.28
2022-12-18T16:54:36.476Z,33.85
2022-12-18T16:57:05.176Z,34.83
2022-12-18T16:59:31.840Z,31.45
2022-12-18T17:01:58.858Z,36.85
2022-12-18T17:04:25.619Z,35.72
2022-12-18T17:06:54.724Z,31.55
2022-12-18T17:09:30.708Z,36.10
2022-12-18T17:11:57.308Z,38.13
2022-12-18T17:14:25.119Z,37.15
2022-12-18T17:17:19.146Z,32.20
2022-12-18T17:19:39.597Z,34.75
2022-12-18T17:22:07.930Z,35.38
2022-12-18T17:24:35.511Z,38.17
2022-12-18T17:27:03.411Z,34.10
2022-12-18T17:29:30.747Z,101.53
2022-12-18T17:31:58.036Z,62.30
2022-12-18T17:34:27.317Z,49.30
2022-12-18T17:36:54.044Z,45.05
2022-12-18T17:39:21.317Z,45.83
2022-12-18T17:41:48.763Z,40.30
2022-12-18T17:44:16.921Z,42.38
2022-12-18T17:46:44.484Z,67.88
2022-12-18T17:49:11.647Z,48.13
2022-12-18T17:51:39.107Z,55.08
2022-12-18T17:54:06.374Z,49.92
2022-12-18T17:56:35.648Z,53.45
2022-12-18T17:59:06.863Z,46.88
2022-12-18T18:01:33.767Z,49.42
2022-12-18T18:04:01.883Z,46.33
2022-12-18T18:06:30.959Z,40.47
2022-12-18T18:09:00.100Z,38.67
2022-12-18T18:11:52.051Z,49.15
2022-12-18T18:14:21.212Z,45.67
2022-12-18T18:16:54.340Z,33.63
2022-12-18T18:21:51.905Z,31.92
2022-12-18T18:24:23.316Z,32.05
2022-12-18T18:26:53.487Z,35.63
2022-12-18T18:29:27.928Z,34.38
2022-12-18T18:31:58.300Z,34.30
2022-12-18T18:34:30.596Z,34.00
2022-12-18T18:36:59.048Z,33.53
2022-12-18T18:39:28.310Z,32.45
2022-12-18T18:41:57.378Z,39.55
2022-12-18T18:44:26.548Z,37.33
2022-12-18T18:46:57.985Z,37.33
2022-12-18T18:49:34.708Z,32.05
2022-12-18T18:52:03.732Z,33.83
2022-12-18T18:54:30.990Z,36.90
2022-12-18T18:57:19.837Z,36.10
2022-12-18T18:59:49.424Z,35.47
2022-12-18T19:02:17.364Z,36.33
2022-12-18T19:04:47.104Z,39.80
2022-12-18T19:07:29.908Z,36.25
2022-12-18T19:10:05.112Z,42.10
2022-12-18T19:12:51.898Z,50.05
2022-12-18T19:15:18.602Z,43.05
2022-12-18T19:17:47.957Z,45.05
2022-12-18T19:20:15.551Z,35.30
2022-12-18T19:22:46.985Z,52.15
2022-12-18T19:25:23.505Z,44.00
2022-12-18T19:27:55.121Z,49.67
2022-12-18T19:30:21.823Z,51.83
2022-12-18T19:32:50.881Z,56.33
2022-12-18T19:35:19.651Z,43.65
2022-12-18T19:37:49.313Z,35.00
2022-12-18T19:40:18.848Z,33.70
2022-12-18T19:42:45.856Z,32.83
2022-12-18T19:45:16.335Z,37.08
2022-12-18T19:47:44.493Z,41.33
2022-12-18T19:50:13.661Z,34.88
2022-12-18T19:52:40.578Z,32.63
2022-12-18T19:55:08.948Z,37.47
2022-12-18T19:57:39.603Z,32.95
2022-12-18T20:00:14.042Z,34.83
2022-12-18T20:02:55.342Z,32.45
2022-12-18T20:05:25.287Z,33.38
2022-12-18T20:07:52.655Z,36.85
2022-12-18T20:10:19.939Z,30.83
2022-12-18T20:12:51.715Z,38.88
2022-12-18T20:15:23.137Z,33.17
2022-12-18T20:17:50.180Z,34.38
2022-12-18T20:20:17.258Z,34.92
2022-12-18T20:22:45.139Z,36.60
2022-12-18T20:25:14.419Z,33.33
2022-12-18T20:27:41.095Z,35.03
2022-12-18T20:30:10.470Z,33.90
2022-12-18T20:32:39.516Z,36.35
2022-12-18T20:35:09.029Z,36.83
2022-12-18T20:37:37.836Z,34.70
2022-12-18T20:40:13.066Z,38.33
2022-12-18T20:42:44.983Z,36.25
2022-12-18T20:45:11.628Z,38.80
2022-12-18T20:47:40.448Z,36.75
2022-12-18T20:50:09.971Z,40.40
2022-12-18T20:52:39.100Z,34.67
2022-12-18T20:55:09.317Z,34.95
2022-12-18T20:57:38.984Z,35.83
2022-12-18T21:00:06.790Z,37.60
2022-12-18T21:02:37.517Z,34.08
2022-12-18T21:05:07.041Z,39.63
2022-12-18T21:07:41.782Z,39.15
2022-12-18T21:10:10.887Z,37.45
2022-12-18T21:12:58.188Z,38.05
2022-12-18T21:15:30.728Z,38.72
2022-12-18T21:17:57.381Z,37.85
2022-12-18T21:20:25.098Z,45.00
2022-12-18T21:22:52.214Z,42.05
2022-12-18T21:25:24.532Z,37.97
2022-12-18T21:27:51.122Z,38.42
2022-12-18T21:30:20.804Z,39.38
2022-12-18T21:32:47.474Z,38.72
2022-12-18T21:35:14.143Z,39.58
2022-12-18T21:37:40.771Z,38.65
2022-12-18T21:40:10.438Z,41.17
2022-12-18T21:42:56.882Z,34.30
2022-12-18T21:45:23.512Z,40.92
2022-12-18T21:47:50.205Z,41.15
2022-12-18T21:50:20.139Z,40.35
2022-12-18T21:52:47.378Z,39.80
2022-12-18T21:55:14.000Z,43.17
2022-12-18T21:57:41.988Z,40.42
2022-12-18T22:00:12.523Z,43.80
2022-12-18T22:02:46.458Z,39.92
2022-12-18T22:05:13.195Z,40.53
2022-12-18T22:07:39.974Z,39.10
2022-12-18T22:10:07.190Z,38.95
2022-12-18T22:12:43.533Z,39.72
2022-12-18T22:15:21.653Z,40.78
2022-12-18T22:17:50.064Z,38.60
2022-12-18T22:20:19.924Z,42.50
2022-12-18T22:22:48.096Z,37.00
2022-12-18T22:25:15.984Z,40.33
2022-12-18T22:27:42.619Z,38.97
2022-12-18T22:30:14.327Z,34.92
2022-12-18T22:32:44.030Z,41.60
2022-12-18T22:35:15.963Z,39.30
2022-12-18T22:37:45.399Z,39.92
2022-12-18T22:40:23.686Z,38.15
2022-12-18T22:42:50.826Z,42.58
2022-12-18T22:45:19.531Z,39.90
2022-12-18T22:47:46.115Z,39.95
2022-12-18T22:50:16.322Z,41.40
2022-12-18T22:52:47.985Z,39.22
2022-12-18T22:55:21.994Z,41.13
2022-12-18T22:57:51.331Z,37.47
2022-12-18T23:00:20.757Z,38.95
2022-12-18T23:02:59.361Z,40.80
2022-12-18T23:05:30.250Z,39.05
2022-12-18T23:07:57.626Z,40.42
2022-12-18T23:10:27.384Z,39.45
2022-12-18T23:12:54.140Z,39.40
2022-12-18T23:15:26.056Z,39.13
2022-12-18T23:17:56.127Z,36.15
2022-12-18T23:20:25.294Z,40.90
2022-12-18T23:22:51.917Z,40.05
2022-12-18T23:25:19.273Z,38.65
2022-12-18T23:27:46.111Z,41.25
2022-12-18T23:30:13.120Z,39.85
2022-12-18T23:32:39.918Z,35.72
2022-12-18T23:35:09.397Z,35.85
2022-12-18T23:37:58.937Z,39.03
2022-12-18T23:40:27.700Z,40.70
2022-12-18T23:42:54.389Z,39.95
2022-12-18T23:45:21.005Z,40.90
2022-12-18T23:47:50.906Z,35.80
2022-12-18T23:50:29.116Z,39.65
2022-12-18T23:52:57.033Z,36.65
2022-12-18T23:55:28.806Z,38.33
2022-12-18T23:57:55.564Z,36.33
